Time;durP1;ratioP1;P1;durP2;ratioP2;P2;SDS_P1;SDS_P2;PMS_P1;PMS_P2;Temp;Humidity;BMP_temperature;BMP_pressure;BME280_temperature;BME280_humidity;BME280_pressure;Samples;Min_cycle;Max_cycle;Signal;HPM_P1;HPM_P2
2024/02/11 00:01:12;;;;;;;7.38;6.05;;;15.20;69.00;16.90;98481.00;;;;5011641;28;20647;-72
2024/02/11 00:03:41;;;;;;;7.75;6.07;;;15.20;69.00;16.90;98479.00;;;;5013005;28;20220;-72
2024/02/11 00:06:10;;;;;;;7.07;6.35;;;15.20;69.00;16.90;98474.00;;;;5031265;28;20254;-72
2024/02/11 00:08:38;;;;;;;7.10;6.40;;;15.20;69.00;16.90;98480.00;;;;5021720;28;20212;-72
2024/02/11 00:11:06;;;;;;;7.57;6.78;;;15.10;68.90;16.90;98479.00;;;;5011914;28;20292;-72
2024/02/11 00:13:34;;;;;;;8.82;6.43;;;15.10;69.00;16.80;98475.00;;;;5010774;28;20232;-72
2024/02/11 00:16:01;;;;;;;7.65;6.43;;;15.10;69.00;16.80;98477.00;;;;5011363;28;20205;-72
2024/02/11 00:18:29;;;;;;;7.93;6.53;;;15.10;69.00;16.80;98476.00;;;;5004654;28;20256;-72
2024/02/11 00:20:57;;;;;;;7.82;7.03;;;15.10;69.10;16.80;98478.00;;;;5008874;28;20201;-72
2024/02/11 00:23:25;;;;;;;8.18;6.82;;;15.10;69.10;16.80;98468.00;;;;5006918;28;20669;-72
2024/02/11 00:25:53;;;;;;;8.15;6.90;;;15.10;69.10;16.80;98466.00;;;;5009754;28;20655;-73
2024/02/11 00:28:21;;;;;;;8.60;6.82;;;15.10;69.10;16.80;98460.00;;;;5013370;28;20304;-73
2024/02/11 00:30:49;;;;;;;7.60;6.38;;;15.10;69.10;16.80;98458.00;;;;5013861;28;20540;-73
2024/02/11 00:33:19;;;;;;;7.47;6.45;;;15.00;69.10;16.80;98456.00;;;;5014620;28;20216;-73
2024/02/11 00:35:47;;;;;;;7.10;6.38;;;15.00;69.10;16.80;98453.00;;;;5014906;28;20221;-73
2024/02/11 00:38:17;;;;;;;7.47;6.72;;;15.00;69.20;16.80;98455.00;;;;5014329;28;20642;-73
2024/02/11 00:40:44;;;;;;;9.50;7.13;;;15.00;69.20;16.80;98457.00;;;;5014047;28;20312;-73
2024/02/11 00:43:12;;;;;;;7.03;6.32;;;15.00;69.30;16.80;98460.00;;;;5014606;28;20193;-73
2024/02/11 00:45:40;;;;;;;9.15;7.03;;;15.00;69.30;16.80;98458.00;;;;5012879;28;20221;-73
2024/02/11 00:48:10;;;;;;;6.53;5.85;;;15.00;69.30;16.80;98460.00;;;;4997558;28;20231;-73
2024/02/11 00:50:38;;;;;;;7.82;6.75;;;15.00;69.30;16.80;98456.00;;;;4999678;28;20193;-73
2024/02/11 00:53:05;;;;;;;6.72;6.05;;;15.00;69.30;16.70;98455.00;;;;4998246;28;20208;-73
2024/02/11 00:55:35;;;;;;;7.78;6.47;;;15.10;69.40;16.70;98449.00;;;;4999673;28;20213;-73
2024/02/11 00:58:03;;;;;;;8.45;7.05;;;15.00;69.30;16.70;98454.00;;;;4998637;28;20219;-73
2024/02/11 01:00:30;;;;;;;7.97;7.05;;;15.10;69.40;16.80;98463.00;;;;4998997;28;20321;-73
2024/02/11 01:02:58;;;;;;;7.70;6.72;;;15.00;69.40;16.70;98457.00;;;;4999172;28;20283;-73
2024/02/11 01:05:25;;;;;;;7.00;6.30;;;15.00;69.40;16.80;98462.00;;;;5000043;28;20287;-73
2024/02/11 01:07:52;;;;;;;9.52;7.00;;;15.00;69.50;16.80;98464.00;;;;4998071;28;22229;-73
2024/02/11 01:10:21;;;;;;;8.50;6.95;;;15.10;69.40;16.80;98461.00;;;;4997912;28;20208;-73
2024/02/11 01:12:49;;;;;;;6.82;6.13;;;15.00;69.40;16.70;98464.00;;;;4999252;28;20204;-73
2024/02/11 01:15:17;;;;;;;7.85;7.05;;;15.00;69.40;16.80;98468.00;;;;4999244;28;20193;-73
2024/02/11 01:17:45;;;;;;;7.75;6.75;;;15.00;69.40;16.70;98467.00;;;;4998611;28;20376;-73
2024/02/11 01:20:16;;;;;;;8.18;6.68;;;15.00;69.40;16.70;98470.00;;;;4996983;28;20224;-73
2024/02/11 01:22:44;;;;;;;9.25;7.28;;;15.00;69.40;16.80;98462.00;;;;4997628;28;20197;-73
2024/02/11 01:25:19;;;;;;;7.28;6.45;;;15.00;69.40;16.80;98454.00;;;;5007004;28;20821;-73
2024/02/11 01:27:47;;;;;;;7.30;6.38;;;15.00;69.50;16.80;98454.00;;;;5010688;28;20711;-73
2024/02/11 01:30:17;;;;;;;9.30;7.53;;;15.00;69.40;16.70;98455.00;;;;5012774;28;20284;-73
2024/02/11 01:32:45;;;;;;;6.57;5.88;;;15.00;69.40;16.80;98456.00;;;;5013229;28;20197;-73
2024/02/11 01:35:14;;;;;;;8.85;5.90;;;15.00;69.40;16.70;98456.00;;;;5012835;28;20227;-73
2024/02/11 01:37:41;;;;;;;6.65;5.95;;;15.00;69.40;16.70;98461.00;;;;5002335;28;20205;-73
2024/02/11 01:40:15;;;;;;;6.68;5.97;;;15.00;69.40;16.70;98460.00;;;;5012168;28;20593;-73
2024/02/11 01:42:44;;;;;;;6.95;5.85;;;15.00;69.40;16.70;98457.00;;;;5013481;28;20196;-73
2024/02/11 01:45:12;;;;;;;6.53;5.88;;;15.00;69.40;16.80;98462.00;;;;5013398;28;20593;-73
2024/02/11 01:47:43;;;;;;;6.47;5.47;;;15.00;69.40;16.70;98456.00;;;;5011520;28;20225;-73
2024/02/11 01:50:15;;;;;;;8.23;6.15;;;15.00;69.40;16.70;98458.00;;;;5011716;28;20284;-73
2024/02/11 01:52:43;;;;;;;6.50;5.88;;;15.00;69.40;16.70;98463.00;;;;5013723;28;20204;-73
2024/02/11 01:55:12;;;;;;;6.82;5.90;;;15.00;69.40;16.70;98466.00;;;;5011894;28;20305;-73
2024/02/11 01:57:42;;;;;;;6.32;5.60;;;15.00;69.50;16.70;98461.00;;;;5011888;28;20236;-73
2024/02/11 02:00:12;;;;;;;6.15;5.53;;;15.00;70.10;16.70;98470.00;;;;5009193;28;20201;-73
2024/02/11 02:02:43;;;;;;;7.18;6.03;;;15.00;69.50;16.70;98465.00;;;;5012854;28;20292;-73
2024/02/11 02:05:10;;;;;;;7.10;6.38;;;15.00;69.50;16.70;98469.00;;;;5012882;28;20200;-73
2024/02/11 02:07:39;;;;;;;7.35;5.82;;;15.00;69.50;16.70;98469.00;;;;5010438;28;20221;-73
2024/02/11 02:10:09;;;;;;;6.85;6.15;;;15.00;69.50;16.80;98465.00;;;;5011801;28;20292;-73
2024/02/11 02:12:37;;;;;;;7.90;6.75;;;15.00;69.60;16.80;98465.00;;;;5010088;28;20205;-73
2024/02/11 02:15:05;;;;;;;6.22;5.63;;;15.00;69.50;16.80;98457.00;;;;5011992;28;20288;-73
2024/02/11 02:17:32;;;;;;;6.60;5.70;;;15.00;69.50;16.80;98456.00;;;;5012316;28;20193;-73
2024/02/11 02:20:01;;;;;;;8.45;6.82;;;15.00;69.50;16.70;98456.00;;;;5012118;28;20288;-73
2024/02/11 02:22:30;;;;;;;7.15;5.72;;;15.00;69.50;16.70;98446.00;;;;5011908;28;20729;-73
2024/02/11 02:24:57;;;;;;;8.65;6.57;;;15.00;69.50;16.80;98443.00;;;;5012144;28;20193;-73
2024/02/11 02:27:24;;;;;;;6.68;5.97;;;15.00;69.50;16.80;98445.00;;;;5010914;28;20280;-73
2024/02/11 02:29:51;;;;;;;8.63;6.78;;;15.00;69.50;16.70;98438.00;;;;5011841;28;20205;-73
2024/02/11 02:32:19;;;;;;;6.40;5.70;;;15.00;69.50;16.70;98438.00;;;;5011382;28;20287;-73
2024/02/11 02:34:46;;;;;;;7.15;6.45;;;15.00;69.50;16.80;98435.00;;;;5012139;28;20288;-73
2024/02/11 02:37:14;;;;;;;7.07;6.20;;;15.00;69.60;16.70;98436.00;;;;5011936;28;20200;-73
2024/02/11 02:39:42;;;;;;;8.07;5.95;;;15.00;69.50;16.70;98433.00;;;;5010061;28;20315;-73
2024/02/11 02:42:12;;;;;;;7.15;6.45;;;15.00;69.60;16.70;98439.00;;;;5024635;28;20204;-73
2024/02/11 02:44:39;;;;;;;6.72;5.97;;;15.00;69.60;16.70;98434.00;;;;5013257;28;20227;-73
2024/02/11 02:47:06;;;;;;;6.90;6.18;;;15.00;69.60;16.70;98433.00;;;;5010541;28;20236;-73
2024/02/11 02:49:34;;;;;;;7.18;6.47;;;15.00;69.60;16.70;98427.00;;;;5010036;28;20276;-73
2024/02/11 02:52:02;;;;;;;7.40;6.55;;;15.00;69.60;16.70;98426.00;;;;5012236;28;20216;-73
2024/02/11 02:54:29;;;;;;;8.13;6.65;;;15.00;69.60;16.70;98429.00;;;;5011885;28;20285;-72
2024/02/11 02:56:58;;;;;;;7.82;6.85;;;15.00;69.60;16.70;98429.00;;;;5010993;28;20283;-73
2024/02/11 02:59:25;;;;;;;7.13;6.07;;;15.00;69.70;16.70;98423.00;;;;5010783;28;20282;-73
2024/02/11 03:01:58;;;;;;;7.60;6.35;;;15.00;70.30;16.70;98423.00;;;;5014295;28;20641;-73
2024/02/11 03:04:26;;;;;;;7.43;6.53;;;15.00;69.70;16.70;98424.00;;;;5010397;28;20197;-73
2024/02/11 03:06:54;;;;;;;7.40;5.93;;;15.00;69.70;16.70;98427.00;;;;5010868;28;20639;-73
2024/02/11 03:09:21;;;;;;;7.93;6.65;;;15.00;69.70;16.70;98424.00;;;;5009801;28;20685;-73
2024/02/11 03:11:49;;;;;;;6.82;6.13;;;14.90;69.60;16.70;98416.00;;;;5011699;28;20638;-73
2024/02/11 03:14:19;;;;;;;8.32;7.03;;;14.90;69.60;16.70;98420.00;;;;5012909;28;20681;-73
2024/02/11 03:16:47;;;;;;;6.72;6.00;;;15.00;69.70;16.70;98417.00;;;;5018993;28;20193;-73
2024/02/11 03:19:15;;;;;;;7.30;5.93;;;14.90;69.60;16.70;98417.00;;;;5013205;28;20228;-73
2024/02/11 03:21:48;;;;;;;8.07;6.03;;;15.00;69.70;16.70;98421.00;;;;5011509;28;20253;-73
2024/02/11 03:24:16;;;;;;;8.35;6.50;;;15.00;69.70;16.70;98414.00;;;;5011591;28;20580;-73
2024/02/11 03:26:43;;;;;;;6.95;6.25;;;15.00;69.70;16.70;98412.00;;;;5010502;28;20288;-73
2024/02/11 03:29:10;;;;;;;7.45;6.53;;;15.00;69.70;16.70;98413.00;;;;5010774;28;20312;-73
2024/02/11 03:31:38;;;;;;;7.10;6.13;;;14.90;69.60;16.70;98409.00;;;;5010209;28;20201;-73
2024/02/11 03:34:05;;;;;;;7.15;6.43;;;14.90;69.60;16.70;98411.00;;;;5012740;28;20292;-73
2024/02/11 03:36:33;;;;;;;8.15;6.43;;;14.90;69.60;16.70;98414.00;;;;5010491;28;20209;-73
2024/02/11 03:39:00;;;;;;;6.90;6.20;;;14.90;69.60;16.70;98413.00;;;;5009406;28;20209;-73
2024/02/11 03:41:27;;;;;;;7.80;6.38;;;14.90;69.60;16.70;98411.00;;;;5009966;28;20319;-73
2024/02/11 03:43:54;;;;;;;6.85;6.15;;;14.90;69.60;16.70;98412.00;;;;5010540;28;20292;-73
2024/02/11 03:46:24;;;;;;;8.13;7.07;;;14.90;69.60;16.70;98425.00;;;;5010378;28;20230;-73
2024/02/11 03:48:53;;;;;;;7.63;6.47;;;14.90;69.60;16.70;98419.00;;;;5009409;28;20247;-72
2024/02/11 03:51:22;;;;;;;6.82;6.13;;;14.90;69.70;16.70;98420.00;;;;5004099;28;20197;-72
2024/02/11 03:53:50;;;;;;;8.00;6.43;;;14.90;69.70;16.70;98418.00;;;;5009459;28;20569;-72
2024/02/11 03:56:22;;;;;;;8.48;6.68;;;14.90;69.70;16.70;98418.00;;;;5011377;28;20197;-72
2024/02/11 03:58:49;;;;;;;7.82;7.03;;;14.90;69.70;16.70;98423.00;;;;5011658;28;20729;-72
2024/02/11 04:01:17;;;;;;;7.80;6.60;;;14.90;69.70;16.70;98425.00;;;;5013039;28;20205;-72
2024/02/11 04:03:44;;;;;;;7.65;6.63;;;14.90;69.70;16.70;98423.00;;;;5014976;28;20207;-73
2024/02/11 04:06:13;;;;;;;7.90;6.30;;;14.90;69.70;16.70;98431.00;;;;5014250;28;20292;-73
2024/02/11 04:08:42;;;;;;;7.90;6.45;;;14.90;69.70;16.70;98434.00;;;;5012315;28;20229;-73
2024/02/11 04:11:09;;;;;;;7.13;6.18;;;14.90;69.70;16.70;98432.00;;;;5009963;28;20201;-72
2024/02/11 04:13:37;;;;;;;7.40;6.20;;;14.90;69.70;16.70;98430.00;;;;5013036;28;20212;-73
2024/02/11 04:16:11;;;;;;;7.72;6.70;;;14.90;69.80;16.70;98434.00;;;;5013577;28;20246;-73
2024/02/11 04:18:38;;;;;;;8.05;6.72;;;14.90;69.80;16.70;98423.00;;;;5014714;28;20296;-72
2024/02/11 04:21:06;;;;;;;7.10;6.40;;;14.90;69.80;16.70;98434.00;;;;5014026;28;20200;-72
2024/02/11 04:23:34;;;;;;;7.00;6.32;;;14.90;69.70;16.60;98428.00;;;;5014109;28;20228;-72
2024/02/11 04:26:07;;;;;;;7.03;6.32;;;14.90;69.80;16.70;98428.00;;;;5013913;28;20648;-72
2024/02/11 04:28:35;;;;;;;7.70;6.65;;;14.90;69.80;16.70;98427.00;;;;5013916;28;20797;-72
2024/02/11 04:31:08;;;;;;;9.50;7.07;;;14.90;69.80;16.70;98423.00;;;;5013826;28;20201;-72
2024/02/11 04:33:38;;;;;;;7.20;6.45;;;14.90;69.80;16.70;98421.00;;;;5013372;28;20280;-72
2024/02/11 04:36:09;;;;;;;10.63;7.03;;;14.90;69.80;16.60;98426.00;;;;5014305;28;20207;-72
2024/02/11 04:38:37;;;;;;;7.10;6.30;;;14.90;69.80;16.70;98430.00;;;;5013624;28;20224;-72
2024/02/11 04:41:05;;;;;;;7.47;6.38;;;14.90;69.80;16.60;98431.00;;;;5013896;28;20276;-72
2024/02/11 04:43:34;;;;;;;8.23;7.22;;;14.90;69.80;16.60;98428.00;;;;5012960;28;20598;-72
2024/02/11 04:46:02;;;;;;;8.10;7.07;;;14.90;69.80;16.60;98431.00;;;;5014201;28;20227;-72
2024/02/11 04:48:31;;;;;;;9.20;7.32;;;14.90;69.80;16.60;98431.00;;;;5013708;28;20307;-72
2024/02/11 04:50:59;;;;;;;8.93;7.80;;;14.90;69.80;16.60;98426.00;;;;5013358;28;20678;-72
2024/02/11 04:53:27;;;;;;;8.07;6.60;;;14.90;69.80;16.60;98425.00;;;;5013231;28;20380;-72
2024/02/11 04:55:57;;;;;;;7.38;6.47;;;14.90;69.80;16.60;98433.00;;;;5013366;28;20734;-72
2024/02/11 04:58:26;;;;;;;8.45;7.35;;;14.90;69.80;16.60;98434.00;;;;5013993;28;20288;-72
2024/02/11 05:00:54;;;;;;;8.40;7.57;;;14.90;69.90;16.60;98430.00;;;;5012261;28;20232;-73
2024/02/11 05:03:24;;;;;;;7.82;6.78;;;14.90;69.90;16.70;98429.00;;;;5012667;28;20729;-72
2024/02/11 05:05:51;;;;;;;8.38;7.45;;;14.90;69.80;16.60;98436.00;;;;5013498;28;20189;-73
2024/02/11 05:08:19;;;;;;;8.85;7.82;;;14.90;69.90;16.60;98431.00;;;;5011861;28;20213;-72
2024/02/11 05:10:51;;;;;;;10.45;7.85;;;14.90;69.90;16.60;98435.00;;;;5012014;28;20231;-72
2024/02/11 05:13:19;;;;;;;8.77;7.57;;;14.90;69.90;16.60;98440.00;;;;5011850;28;20192;-72
2024/02/11 05:15:49;;;;;;;8.55;7.65;;;14.90;69.90;16.60;98433.00;;;;5014689;28;20239;-73
2024/02/11 05:18:18;;;;;;;8.18;7.38;;;14.90;69.90;16.60;98437.00;;;;5015955;28;20244;-72
2024/02/11 05:20:46;;;;;;;8.23;7.28;;;14.90;69.90;16.60;98444.00;;;;5013755;28;20284;-72
2024/02/11 05:23:15;;;;;;;8.95;7.43;;;14.90;69.80;16.70;98444.00;;;;5011976;28;20292;-72
2024/02/11 05:25:44;;;;;;;8.63;7.47;;;14.90;69.90;16.60;98445.00;;;;5013061;28;20193;-73
2024/02/11 05:28:15;;;;;;;8.73;7.88;;;14.90;69.80;16.60;98445.00;;;;4993741;28;20222;-72
2024/02/11 05:30:45;;;;;;;9.07;7.75;;;14.90;69.80;16.60;98450.00;;;;5005123;28;20732;-72
2024/02/11 05:33:15;;;;;;;8.65;7.78;;;14.90;69.80;16.60;98448.00;;;;5012771;28;20193;-72
2024/02/11 05:35:43;;;;;;;9.63;8.40;;;14.90;69.80;16.60;98449.00;;;;5003238;28;20209;-72
2024/02/11 05:38:13;;;;;;;9.00;8.10;;;14.90;69.80;16.60;98454.00;;;;5012592;28;20254;-72
2024/02/11 05:40:42;;;;;;;8.88;8.02;;;14.90;69.80;16.60;98455.00;;;;5012731;28;20295;-72
2024/02/11 05:43:12;;;;;;;9.10;8.20;;;14.90;69.90;16.60;98456.00;;;;5010812;28;20220;-73
2024/02/11 05:45:41;;;;;;;9.30;8.40;;;14.90;69.90;16.60;98457.00;;;;5012414;28;20785;-72
2024/02/11 05:48:11;;;;;;;8.30;7.50;;;14.90;69.90;16.60;98452.00;;;;5012688;28;20705;-72
2024/02/11 05:50:38;;;;;;;8.75;7.78;;;14.80;69.80;16.60;98453.00;;;;5010861;28;20201;-72
2024/02/11 05:53:05;;;;;;;9.63;8.27;;;14.80;69.80;16.60;98458.00;;;;5022289;28;20279;-72
2024/02/11 05:55:33;;;;;;;8.38;7.53;;;14.90;69.90;16.60;98458.00;;;;5013024;28;20556;-72
2024/02/11 05:58:00;;;;;;;9.38;8.15;;;14.90;70.00;16.60;98455.00;;;;5011036;28;20263;-72
2024/02/11 06:00:31;;;;;;;9.40;7.53;;;14.90;70.00;16.60;98463.00;;;;5010408;28;20316;-72
2024/02/11 06:03:00;;;;;;;9.10;7.85;;;14.80;69.90;16.60;98455.00;;;;5008428;28;20254;-73
2024/02/11 06:05:29;;;;;;;10.45;8.25;;;14.90;70.00;16.60;98463.00;;;;5010076;28;20572;-73
2024/02/11 06:07:59;;;;;;;9.40;7.82;;;14.80;70.00;16.60;98464.00;;;;5007273;28;20201;-73
2024/02/11 06:10:29;;;;;;;9.40;8.27;;;14.80;70.00;16.60;98466.00;;;;5009528;28;20623;-73
2024/02/11 06:12:57;;;;;;;9.20;8.00;;;14.80;70.00;16.70;98474.00;;;;5012907;28;20200;-73
2024/02/11 06:15:27;;;;;;;9.90;8.52;;;14.90;70.70;16.60;98471.00;;;;5010548;28;20209;-73
2024/02/11 06:17:57;;;;;;;9.30;8.32;;;14.90;70.00;16.60;98477.00;;;;5021288;28;20519;-73
2024/02/11 06:20:24;;;;;;;8.40;7.55;;;14.80;70.00;16.60;98487.00;;;;5013528;28;20202;-73
2024/02/11 06:22:54;;;;;;;11.40;8.52;;;14.80;70.00;16.60;98490.00;;;;5011875;28;20199;-73
2024/02/11 06:25:22;;;;;;;9.43;7.50;;;14.80;70.00;16.60;98504.00;;;;5016518;28;20255;-72
2024/02/11 06:27:50;;;;;;;8.52;6.80;;;14.90;69.90;16.50;98508.00;;;;5010892;28;20227;-73
2024/02/11 06:30:19;;;;;;;4.72;4.22;;;14.80;69.70;16.40;98524.00;;;;5008788;28;20494;-73
2024/02/11 06:32:49;;;;;;;3.70;3.30;;;14.80;69.40;16.30;98529.00;;;;5011582;28;20204;-74
2024/02/11 06:35:18;;;;;;;3.08;2.70;;;14.70;68.90;16.20;98530.00;;;;5011759;28;20279;-73
2024/02/11 06:37:48;;;;;;;5.28;3.30;;;14.70;68.70;16.10;98543.00;;;;5010017;28;20205;-73
2024/02/11 06:40:22;;;;;;;3.40;2.90;;;14.60;68.50;16.00;98544.00;;;;5005452;28;20335;-73
2024/02/11 06:42:50;;;;;;;3.50;3.00;;;14.50;68.40;15.90;98547.00;;;;5011725;28;20650;-74
2024/02/11 06:45:18;;;;;;;5.40;2.60;;;14.40;68.20;15.80;98560.00;;;;5007563;28;20233;-73
2024/02/11 06:47:47;;;;;;;2.78;2.40;;;14.30;68.20;15.70;98564.00;;;;5005550;28;20240;-73
2024/02/11 06:50:15;;;;;;;3.97;2.65;;;14.20;68.30;15.70;98561.00;;;;5011196;28;20308;-73
2024/02/11 06:52:44;;;;;;;4.10;2.65;;;14.20;68.30;15.60;98566.00;;;;5010822;28;20634;-73
2024/02/11 06:55:13;;;;;;;4.30;2.70;;;14.10;68.30;15.50;98580.00;;;;5009419;28;20228;-73
2024/02/11 06:57:42;;;;;;;4.50;2.97;;;14.00;68.40;15.40;98581.00;;;;5012489;28;20201;-73
2024/02/11 07:00:11;;;;;;;4.13;2.75;;;14.00;68.50;15.40;98588.00;;;;4997639;28;20209;-73
2024/02/11 07:02:40;;;;;;;5.18;2.85;;;13.90;68.40;15.30;98588.00;;;;5012298;28;20220;-74
2024/02/11 07:05:09;;;;;;;4.75;2.85;;;13.80;68.40;15.20;98595.00;;;;5011200;28;20201;-74
2024/02/11 07:07:37;;;;;;;4.32;3.00;;;13.80;68.50;15.20;98602.00;;;;5011661;28;20225;-74
2024/02/11 07:10:06;;;;;;;5.50;3.38;;;13.70;68.50;15.20;98602.00;;;;5011588;28;20238;-74
2024/02/11 07:12:33;;;;;;;5.40;3.65;;;13.70;68.70;15.20;98613.00;;;;5011634;28;20585;-74
2024/02/11 07:15:04;;;;;;;5.35;3.28;;;13.60;68.70;15.10;98611.00;;;;5009322;28;20280;-73
2024/02/11 07:17:33;;;;;;;4.82;3.22;;;13.60;69.00;15.10;98614.00;;;;5009860;28;20201;-74
2024/02/11 07:20:00;;;;;;;6.72;4.43;;;13.50;69.00;15.10;98624.00;;;;5008975;28;20725;-74
2024/02/11 07:22:27;;;;;;;9.35;5.00;;;13.50;69.00;15.10;98626.00;;;;5008841;28;20565;-74
2024/02/11 07:24:55;;;;;;;6.25;3.97;;;13.50;69.10;15.00;98630.00;;;;5004482;28;20284;-74
2024/02/11 07:27:24;;;;;;;6.45;4.47;;;13.40;69.00;15.00;98641.00;;;;5004835;28;20189;-74
2024/02/11 07:29:51;;;;;;;7.63;4.57;;;13.40;69.10;15.00;98643.00;;;;5011249;28;20368;-74
2024/02/11 07:32:21;;;;;;;7.78;4.60;;;13.40;69.10;14.90;98648.00;;;;5017003;28;20201;-74
2024/02/11 07:34:50;;;;;;;9.45;4.63;;;13.30;69.10;14.90;98655.00;;;;5016641;28;20227;-74
2024/02/11 07:37:18;;;;;;;8.60;4.38;;;13.30;69.10;14.90;98655.00;;;;5013747;28;20208;-74
2024/02/11 07:39:51;;;;;;;5.38;4.30;;;13.30;69.10;14.90;98659.00;;;;5017246;28;20223;-74
2024/02/11 07:42:30;;;;;;;6.35;3.53;;;13.30;69.10;14.80;98659.00;;;;5014262;28;20229;-74
2024/02/11 07:45:04;;;;;;;6.20;4.35;;;13.20;69.20;14.80;98672.00;;;;5014126;28;20220;-75
2024/02/11 07:47:34;;;;;;;8.45;4.63;;;13.20;69.10;14.80;98673.00;;;;5013845;28;20208;-74
2024/02/11 07:50:06;;;;;;;6.97;4.63;;;13.20;69.80;14.80;98685.00;;;;5015877;28;20259;-75
2024/02/11 07:52:36;;;;;;;7.65;4.68;;;13.20;69.10;14.70;98688.00;;;;5014406;28;20197;-75
2024/02/11 07:55:06;;;;;;;7.25;4.45;;;13.20;69.20;14.80;98701.00;;;;5014767;28;20212;-75
2024/02/11 07:57:35;;;;;;;6.15;4.18;;;13.10;69.20;14.80;98703.00;;;;5015510;28;20209;-75
2024/02/11 08:00:07;;;;;;;7.05;4.78;;;13.10;69.20;14.70;98703.00;;;;5015523;28;20287;-75
2024/02/11 08:02:39;;;;;;;8.25;4.90;;;13.10;69.40;14.70;98701.00;;;;5012575;28;20201;-75
2024/02/11 08:05:11;;;;;;;7.15;4.90;;;13.10;69.30;14.70;98699.00;;;;5009877;28;20201;-75
2024/02/11 08:07:42;;;;;;;7.95;5.00;;;13.10;69.40;14.70;98710.00;;;;5029443;28;20207;-74
2024/02/11 08:10:11;;;;;;;8.45;5.22;;;13.10;69.50;14.80;98703.00;;;;5008964;28;20586;-74
2024/02/11 08:12:38;;;;;;;9.32;5.57;;;13.10;69.50;14.70;98710.00;;;;5009267;28;20205;-75
2024/02/11 08:15:12;;;;;;;7.28;4.68;;;13.00;69.60;14.80;98715.00;;;;5013636;28;20199;-74
2024/02/11 08:17:41;;;;;;;6.43;4.50;;;13.10;69.70;14.80;98716.00;;;;5013587;28;20207;-74
2024/02/11 08:20:10;;;;;;;8.95;5.28;;;13.10;69.70;14.80;98713.00;;;;5014338;28;20638;-74
2024/02/11 08:22:37;;;;;;;9.65;5.53;;;13.10;69.70;14.80;98720.00;;;;5013636;28;20205;-73
2024/02/11 08:25:07;;;;;;;9.60;5.50;;;13.10;69.80;14.90;98715.00;;;;5014705;28;20227;-74
2024/02/11 08:27:35;;;;;;;8.18;5.97;;;13.10;69.80;14.90;98721.00;;;;5013197;28;20193;-74
2024/02/11 08:30:04;;;;;;;13.90;5.75;;;13.20;69.80;14.90;98719.00;;;;5012302;28;20225;-75
2024/02/11 08:32:31;;;;;;;10.70;6.40;;;13.10;69.70;14.90;98715.00;;;;5012356;28;20724;-74
2024/02/11 08:35:01;;;;;;;9.52;5.45;;;13.20;69.70;14.90;98726.00;;;;5013267;28;20674;-74
2024/02/11 08:37:28;;;;;;;9.82;5.00;;;13.20;69.70;15.00;98724.00;;;;5007737;28;22343;-74
2024/02/11 08:39:55;;;;;;;7.97;5.05;;;13.20;69.80;15.00;98731.00;;;;5012138;28;20236;-74
2024/02/11 08:42:22;;;;;;;9.95;5.35;;;13.20;69.80;15.00;98739.00;;;;5013716;28;20753;-74
2024/02/11 08:44:51;;;;;;;9.13;5.78;;;13.20;69.80;15.00;98737.00;;;;5013669;28;20295;-74
2024/02/11 08:47:18;;;;;;;9.30;6.07;;;13.20;69.80;15.10;98744.00;;;;5011966;28;20204;-74
2024/02/11 08:49:48;;;;;;;8.25;5.57;;;13.30;70.00;15.00;98751.00;;;;5008139;28;20263;-74
2024/02/11 08:52:17;;;;;;;14.60;5.57;;;13.30;70.00;15.10;98765.00;;;;5010480;28;20271;-96
2024/02/11 08:54:45;;;;;;;10.13;5.47;;;13.30;70.00;15.20;98762.00;;;;5009883;28;20667;-91
2024/02/11 08:57:14;;;;;;;9.88;5.00;;;13.30;70.00;15.20;98770.00;;;;5016970;28;20196;-81
2024/02/11 08:59:42;;;;;;;12.32;5.32;;;13.30;70.00;15.20;98781.00;;;;5015945;28;20212;-94
2024/02/11 09:02:10;;;;;;;10.57;5.05;;;13.40;70.00;15.20;98781.00;;;;5016331;28;20646;-96
2024/02/11 09:04:37;;;;;;;9.98;5.88;;;13.40;69.80;15.20;98784.00;;;;5013963;28;20200;-86
2024/02/11 09:07:07;;;;;;;9.68;5.20;;;13.40;69.80;15.20;98786.00;;;;5015046;28;20229;-95
2024/02/11 09:09:35;;;;;;;7.93;5.72;;;13.40;69.70;15.30;98797.00;;;;5013671;28;20235;-94
2024/02/11 09:12:03;;;;;;;11.60;5.53;;;13.50;69.70;15.30;98786.00;;;;5019001;28;20287;-95
2024/02/11 09:14:36;;;;;;;10.93;4.82;;;13.50;69.70;15.30;98782.00;;;;5028735;28;20682;-95
2024/02/11 09:17:03;;;;;;;11.00;5.68;;;13.50;69.70;15.30;98793.00;;;;5015122;28;20243;-91
2024/02/11 09:19:32;;;;;;;10.75;5.40;;;13.50;69.60;15.30;98791.00;;;;5015457;28;20575;-95
2024/02/11 09:22:05;;;;;;;10.82;5.57;;;13.50;69.70;15.30;98797.00;;;;5012899;28;20197;-90
2024/02/11 09:24:33;;;;;;;9.70;5.97;;;13.50;69.70;15.40;98797.00;;;;5012748;28;20235;-93
2024/02/11 09:27:02;;;;;;;12.75;6.75;;;13.60;69.70;15.40;98802.00;;;;5014368;28;20208;-87
2024/02/11 09:29:30;;;;;;;10.23;6.30;;;13.60;69.80;15.40;98803.00;;;;5013816;28;20307;-74
2024/02/11 09:31:58;;;;;;;11.00;6.85;;;13.60;69.80;15.40;98808.00;;;;5010917;28;20280;-75
2024/02/11 09:34:25;;;;;;;8.98;6.88;;;13.60;69.70;15.40;98818.00;;;;5014038;28;20281;-74
2024/02/11 09:36:54;;;;;;;11.75;7.25;;;13.60;69.80;15.50;98821.00;;;;5012758;28;20201;-75
2024/02/11 09:39:21;;;;;;;14.95;9.35;;;13.60;69.80;15.50;98820.00;;;;5013302;28;20276;-74
2024/02/11 09:41:48;;;;;;;13.38;8.63;;;13.70;69.70;15.50;98814.00;;;;5012639;28;20677;-75
2024/02/11 09:44:22;;;;;;;14.90;9.05;;;13.70;69.70;15.50;98821.00;;;;5006807;28;20677;-75
2024/02/11 09:46:52;;;;;;;14.10;7.72;;;13.70;69.70;15.50;98835.00;;;;5013568;28;20203;-74
2024/02/11 09:49:22;;;;;;;11.18;8.52;;;13.70;69.60;15.50;98824.00;;;;5021050;28;20286;-75
2024/02/11 09:51:52;;;;;;;15.60;8.48;;;13.70;69.70;15.50;98826.00;;;;5010033;28;20200;-74
2024/02/11 09:54:22;;;;;;;12.85;7.93;;;13.70;69.70;15.60;98829.00;;;;5012168;28;20208;-74
2024/02/11 09:56:49;;;;;;;12.90;9.30;;;13.80;69.70;15.60;98829.00;;;;5012045;28;20198;-74
2024/02/11 09:59:18;;;;;;;12.32;8.98;;;13.80;69.70;15.60;98827.00;;;;5011811;28;20671;-74
2024/02/11 10:01:48;;;;;;;9.98;8.57;;;13.80;69.70;15.60;98822.00;;;;5003258;28;20201;-75
2024/02/11 10:04:19;;;;;;;12.60;9.35;;;13.80;69.70;15.60;98824.00;;;;5025339;28;20201;-84
2024/02/11 10:06:47;;;;;;;11.88;9.10;;;13.90;69.80;15.70;98828.00;;;;5014819;28;20193;-83
2024/02/11 10:09:15;;;;;;;12.43;8.95;;;13.90;69.80;15.80;98825.00;;;;5007167;28;20200;-82
2024/02/11 10:11:43;;;;;;;15.88;9.57;;;13.90;69.80;15.80;98828.00;;;;5012067;28;20220;-84
2024/02/11 10:14:13;;;;;;;14.88;9.20;;;14.00;69.90;15.90;98825.00;;;;5014271;28;22493;-84
2024/02/11 10:16:44;;;;;;;14.00;8.63;;;14.10;69.90;15.90;98833.00;;;;5011347;28;20296;-81
2024/02/11 10:19:11;;;;;;;13.80;9.07;;;14.00;69.70;15.90;98834.00;;;;5011415;28;20614;-84
2024/02/11 10:21:38;;;;;;;14.25;9.27;;;14.10;69.70;15.90;98839.00;;;;5019005;28;20203;-83
2024/02/11 10:24:06;;;;;;;12.70;9.18;;;14.10;69.60;16.00;98845.00;;;;5012605;28;20197;-84
2024/02/11 10:26:35;;;;;;;14.73;9.25;;;14.20;69.60;16.00;98842.00;;;;5012342;28;20220;-85
2024/02/11 10:29:03;;;;;;;12.80;9.05;;;14.20;69.40;16.00;98845.00;;;;5024152;28;20280;-85
2024/02/11 10:31:30;;;;;;;11.82;8.70;;;14.20;69.30;16.00;98842.00;;;;5022095;28;20227;-84
2024/02/11 10:33:59;;;;;;;16.33;10.02;;;14.20;69.20;16.00;98851.00;;;;5018068;28;20292;-84
2024/02/11 10:36:27;;;;;;;11.25;8.35;;;14.20;69.10;16.00;98847.00;;;;5023282;28;20287;-84
2024/02/11 10:38:56;;;;;;;15.70;9.05;;;14.30;69.00;16.00;98856.00;;;;5016429;28;20231;-82
2024/02/11 10:41:23;;;;;;;15.57;9.82;;;14.30;69.00;16.10;98864.00;;;;5012028;28;20233;-82
2024/02/11 10:43:51;;;;;;;13.65;9.35;;;14.30;69.00;16.10;98859.00;;;;5010568;28;20232;-83
2024/02/11 10:46:20;;;;;;;15.70;10.65;;;14.30;69.10;16.10;98864.00;;;;5008051;28;20300;-82
2024/02/11 10:48:48;;;;;;;15.70;9.52;;;14.30;69.10;16.10;98856.00;;;;5013086;28;20216;-86
2024/02/11 10:51:23;;;;;;;14.20;9.57;;;14.40;69.00;16.10;98869.00;;;;5010275;28;20228;-83
2024/02/11 10:53:57;;;;;;;12.63;8.63;;;14.40;68.90;16.10;98863.00;;;;5010646;28;20278;-84
2024/02/11 10:56:28;;;;;;;12.25;9.82;;;14.40;68.90;16.20;98870.00;;;;5018724;28;20228;-85
2024/02/11 10:59:08;;;;;;;14.43;10.00;;;14.40;68.90;16.10;98871.00;;;;5010825;28;20201;-84